Time,TemperatureF,DewpointF,PressureIn,WindDirection,WindDirectionDegrees,WindSpeedMPH,WindSpeedGustMPH,Humidity,HourlyPrecipIn,Conditions,Clouds,dailyrainin,SoftwareType,DateUTC
2013-02-23 00:04:00,34.7,28.0,30.42,SSW,206,4.0,9.0,77,0.00,,,0.00,weatherlink.com 1.10,2013-02-23 05:04:00,
2013-02-23 00:19:00,34.6,28.0,30.43,SW,215,4.0,9.0,77,0.00,,,0.00,weatherlink.com 1.10,2013-02-23 05:19:00,
2013-02-23 00:34:00,34.5,28.0,30.42,SSW,205,6.0,9.0,78,0.00,,,0.00,weatherlink.com 1.10,2013-02-23 05:34:00,
2013-02-23 00:49:00,34.4,28.0,30.41,South,180,2.0,8.0,78,0.00,,,0.00,weatherlink.com 1.10,2013-02-23 05:49:00,
2013-02-23 01:04:00,34.4,28.0,30.41,SSW,209,4.0,9.0,78,0.00,,,0.00,weatherlink.com 1.10,2013-02-23 06:04:00,
2013-02-23 01:34:00,34.3,28.0,30.41,SW,221,5.0,7.0,79,0.00,,,0.00,weatherlink.com 1.10,2013-02-23 06:34:00,
2013-02-23 01:49:00,34.3,28.0,30.41,SSW,203,5.0,8.0,79,0.00,,,0.00,weatherlink.com 1.10,2013-02-23 06:49:00,
2013-02-23 02:04:00,34.3,29.0,30.41,SSW,211,5.0,6.0,80,0.00,,,0.00,weatherlink.com 1.10,2013-02-23 07:04:00,
2013-02-23 02:19:00,34.3,29.0,30.40,South,177,4.0,5.0,80,0.00,,,0.00,weatherlink.com 1.10,2013-02-23 07:19:00,
2013-02-23 02:34:00,34.3,29.0,30.39,SSW,213,6.0,6.0,80,0.00,,,0.00,weatherlink.com 1.10,2013-02-23 07:34:00,
2013-02-23 02:49:00,34.3,29.0,30.38,SW,236,4.0,8.0,80,0.00,,,0.00,weatherlink.com 1.10,2013-02-23 07:49:00,
2013-02-23 03:04:00,34.4,29.0,30.37,SSW,207,4.0,8.0,80,0.00,,,0.00,weatherlink.com 1.10,2013-02-23 08:04:00,
2013-02-23 03:19:00,34.4,29.0,30.36,SSW,192,0.0,6.0,80,0.00,,,0.00,weatherlink.com 1.10,2013-02-23 08:19:00,
2013-02-23 03:34:00,34.4,29.0,30.35,WSW,237,2.0,3.0,80,0.00,,,0.00,weatherlink.com 1.10,2013-02-23 08:34:00,
2013-02-23 03:49:00,34.3,29.0,30.35,SSW,202,0.0,4.0,81,0.00,,,0.00,weatherlink.com 1.10,2013-02-23 08:49:00,
2013-02-23 04:04:00,34.4,29.0,30.35,SSW,198,0.0,6.0,81,0.00,,,0.00,weatherlink.com 1.10,2013-02-23 09:04:00,
2013-02-23 04:19:00,34.4,29.0,30.36,SSW,213,7.0,8.0,81,0.00,,,0.00,weatherlink.com 1.10,2013-02-23 09:19:00,
2013-02-23 04:34:00,34.4,29.0,30.35,SW,215,2.0,8.0,81,0.00,,,0.00,weatherlink.com 1.10,2013-02-23 09:34:00,
2013-02-23 04:49:00,34.6,29.0,30.34,SW,217,2.0,8.0,81,0.00,,,0.00,weatherlink.com 1.10,2013-02-23 09:49:00,
2013-02-23 05:04:00,34.5,29.0,30.32,WNW,282,2.0,3.0,81,0.00,,,0.00,weatherlink.com 1.10,2013-02-23 10:04:00,
2013-02-23 05:19:00,34.5,30.0,30.33,West,280,0.0,7.0,82,0.00,,,0.00,weatherlink.com 1.10,2013-02-23 10:19:00,
2013-02-23 05:34:00,34.5,30.0,30.34,West,280,0.0,0.0,82,0.00,,,0.00,weatherlink.com 1.10,2013-02-23 10:34:00,
2013-02-23 05:49:00,34.4,30.0,30.33,West,261,1.0,5.0,83,0.00,,,0.00,weatherlink.com 1.10,2013-02-23 10:49:00,
2013-02-23 06:04:00,34.5,30.0,30.33,West,271,0.0,5.0,83,0.00,,,0.00,weatherlink.com 1.10,2013-02-23 11:04:00,
2013-02-23 06:19:00,34.3,30.0,30.34,NW,319,0.0,4.0,83,0.00,,,0.00,weatherlink.com 1.10,2013-02-23 11:19:00,
2013-02-23 06:34:00,34.3,30.0,30.34,West,265,0.0,2.0,83,0.00,,,0.00,weatherlink.com 1.10,2013-02-23 11:34:00,
2013-02-23 06:49:00,34.3,30.0,30.33,West,265,0.0,0.0,84,0.00,,,0.00,weatherlink.com 1.10,2013-02-23 11:49:00,
2013-02-23 07:04:00,34.3,30.0,30.32,West,265,0.0,0.0,83,0.00,,,0.00,weatherlink.com 1.10,2013-02-23 12:04:00,
2013-02-23 07:19:00,34.3,30.0,30.32,West,265,0.0,0.0,83,0.00,,,0.00,weatherlink.com 1.10,2013-02-23 12:19:00,
2013-02-23 07:34:00,34.4,30.0,30.31,West,266,0.0,0.0,83,0.00,,,0.00,weatherlink.com 1.10,2013-02-23 12:34:00,
2013-02-23 07:49:00,34.6,30.0,30.31,NNE,22,0.0,1.0,83,0.00,,,0.00,weatherlink.com 1.10,2013-02-23 12:49:00,
2013-02-23 08:04:00,34.7,30.0,30.31,NNE,22,0.0,2.0,82,0.00,,,0.00,weatherlink.com 1.10,2013-02-23 13:04:00,
2013-02-23 08:19:00,34.6,30.0,30.30,NE,34,0.0,1.0,83,0.00,,,0.00,weatherlink.com 1.10,2013-02-23 13:19:00,
2013-02-23 08:34:00,35.0,30.0,30.30,NNE,22,0.0,1.0,83,0.00,,,0.00,weatherlink.com 1.10,2013-02-23 13:34:00,
2013-02-23 08:49:00,35.2,30.0,30.30,NNE,28,0.0,1.0,81,0.00,,,0.00,weatherlink.com 1.10,2013-02-23 13:49:00,
2013-02-23 09:04:00,35.7,30.0,30.30,NNE,14,0.0,2.0,81,0.00,,,0.00,weatherlink.com 1.10,2013-02-23 14:04:00,
2013-02-23 09:19:00,35.9,31.0,30.29,NNW,331,0.0,2.0,81,0.00,,,0.00,weatherlink.com 1.10,2013-02-23 14:19:00,
2013-02-23 09:34:00,36.2,31.0,30.29,NNE,28,0.0,4.0,80,0.00,,,0.00,weatherlink.com 1.10,2013-02-23 14:34:00,
2013-02-23 09:49:00,36.4,31.0,30.29,NNE,28,0.0,2.0,80,0.00,,,0.00,weatherlink.com 1.10,2013-02-23 14:49:00,
2013-02-23 10:05:00,36.5,31.0,30.29,NNW,340,0.0,4.0,80,0.00,,,0.00,weatherlink.com 1.10,2013-02-23 15:05:00,
2013-02-23 10:20:00,37.1,31.0,30.28,NNE,17,2.0,2.0,80,0.00,,,0.00,weatherlink.com 1.10,2013-02-23 15:20:00,
2013-02-23 10:35:00,37.3,31.0,30.27,ENE,63,0.0,4.0,79,0.00,,,0.00,weatherlink.com 1.10,2013-02-23 15:35:00,
2013-02-23 10:50:00,37.7,32.0,30.27,NE,37,0.0,5.0,79,0.00,,,0.00,weatherlink.com 1.10,2013-02-23 15:50:00,
2013-02-23 11:05:00,39.2,33.0,30.25,East,82,2.0,6.0,77,0.00,,,0.00,weatherlink.com 1.10,2013-02-23 16:05:00,
2013-02-23 11:20:00,39.7,33.0,30.25,ESE,117,0.0,7.0,77,0.00,,,0.00,weatherlink.com 1.10,2013-02-23 16:20:00,
2013-02-23 11:35:00,40.6,34.0,30.25,SSE,152,0.0,5.0,76,0.00,,,0.00,weatherlink.com 1.10,2013-02-23 16:35:00,
2013-02-23 11:50:00,41.9,34.0,30.24,NNE,27,1.0,4.0,74,0.00,,,0.00,weatherlink.com 1.10,2013-02-23 16:50:00,
2013-02-23 12:05:00,42.5,35.0,30.24,NE,54,1.0,4.0,74,0.00,,,0.00,weatherlink.com 1.10,2013-02-23 17:05:00,
2013-02-23 12:20:00,43.7,36.0,30.23,NNE,15,0.0,2.0,73,0.00,,,0.00,weatherlink.com 1.10,2013-02-23 17:20:00,
2013-02-23 12:35:00,44.5,36.0,30.23,East,84,0.0,4.0,71,0.00,,,0.00,weatherlink.com 1.10,2013-02-23 17:35:00,
2013-02-23 12:50:00,46.0,37.0,30.21,ENE,71,0.0,4.0,70,0.00,,,0.00,weatherlink.com 1.10,2013-02-23 17:50:00,
2013-02-23 13:05:00,46.3,37.0,30.20,East,92,0.0,2.0,70,0.00,,,0.00,weatherlink.com 1.10,2013-02-23 18:05:00,
2013-02-23 13:20:00,47.4,37.0,30.19,WSW,253,2.0,5.0,68,0.00,,,0.00,weatherlink.com 1.10,2013-02-23 18:20:00,
2013-02-23 13:36:00,48.4,39.0,30.18,North,360,0.0,3.0,69,0.00,,,0.00,weatherlink.com 1.10,2013-02-23 18:36:00,
2013-02-23 13:51:00,48.6,38.0,30.18,West,266,0.0,7.0,68,0.00,,,0.00,weatherlink.com 1.10,2013-02-23 18:51:00,
2013-02-23 14:06:00,49.1,38.0,30.17,West,273,0.0,8.0,67,0.00,,,0.00,weatherlink.com 1.10,2013-02-23 19:06:00,
2013-02-23 14:21:00,50.2,39.0,30.16,South,183,0.0,4.0,66,0.00,,,0.00,weatherlink.com 1.10,2013-02-23 19:21:00,
2013-02-23 14:36:00,51.5,39.0,30.15,SW,230,0.0,4.0,63,0.00,,,0.00,weatherlink.com 1.10,2013-02-23 19:36:00,
2013-02-23 14:51:00,51.5,40.0,30.14,SW,232,0.0,6.0,64,0.00,,,0.00,weatherlink.com 1.10,2013-02-23 19:51:00,
2013-02-23 15:06:00,51.6,40.0,30.14,North,355,0.0,7.0,64,0.00,,,0.00,weatherlink.com 1.10,2013-02-23 20:06:00,
2013-02-23 15:21:00,51.4,39.0,30.13,North,355,5.0,8.0,64,0.00,,,0.00,weatherlink.com 1.10,2013-02-23 20:21:00,
2013-02-23 15:36:00,51.9,40.0,30.12,NNW,346,0.0,6.0,63,0.00,,,0.00,weatherlink.com 1.10,2013-02-23 20:36:00,
2013-02-23 16:06:00,52.8,40.0,30.12,NW,305,4.0,6.0,62,0.00,,,0.00,weatherlink.com 1.10,2013-02-23 21:06:00,
2013-02-23 16:21:00,52.1,40.0,30.12,WNW,298,2.0,7.0,63,0.00,,,0.00,weatherlink.com 1.10,2013-02-23 21:21:00,
2013-02-23 16:36:00,51.6,40.0,30.12,NW,306,0.0,5.0,64,0.00,,,0.00,weatherlink.com 1.10,2013-02-23 21:36:00,
2013-02-23 16:51:00,52.3,40.0,30.11,NNW,327,0.0,2.0,63,0.00,,,0.00,weatherlink.com 1.10,2013-02-23 21:51:00,
2013-02-23 17:06:00,52.6,40.0,30.12,NNW,327,0.0,0.0,62,0.00,,,0.00,weatherlink.com 1.10,2013-02-23 22:06:00,
2013-02-23 17:21:00,52.6,40.0,30.11,NNW,327,0.0,0.0,62,0.00,,,0.00,weatherlink.com 1.10,2013-02-23 22:21:00,
2013-02-23 17:36:00,53.0,40.0,30.11,NNW,327,0.0,0.0,62,0.00,,,0.00,weatherlink.com 1.10,2013-02-23 22:36:00,
2013-02-23 17:51:00,50.9,39.0,30.11,WSW,254,2.0,2.0,65,0.00,,,0.00,weatherlink.com 1.10,2013-02-23 22:51:00,
2013-02-23 18:06:00,48.4,39.0,30.11,SSW,209,1.0,4.0,70,0.00,,,0.00,weatherlink.com 1.10,2013-02-23 23:06:00,
2013-02-23 18:21:00,47.4,38.0,30.11,SSW,209,0.0,0.0,71,0.00,,,0.00,weatherlink.com 1.10,2013-02-23 23:21:00,
2013-02-23 18:36:00,46.6,39.0,30.10,SSW,209,0.0,0.0,74,0.00,,,0.00,weatherlink.com 1.10,2013-02-23 23:36:00,
2013-02-23 18:51:00,45.8,39.0,30.10,SSW,209,0.0,0.0,76,0.00,,,0.00,weatherlink.com 1.10,2013-02-23 23:51:00,
2013-02-23 19:06:00,45.4,38.0,30.11,SSW,209,0.0,0.0,76,0.00,,,0.00,weatherlink.com 1.10,2013-02-24 00:06:00,
2013-02-23 19:21:00,44.3,38.0,30.10,SSW,209,0.0,0.0,77,0.00,,,0.00,weatherlink.com 1.10,2013-02-24 00:21:00,
2013-02-23 19:36:00,43.7,38.0,30.10,SSW,209,0.0,0.0,80,0.00,,,0.00,weatherlink.com 1.10,2013-02-24 00:36:00,
2013-02-23 19:51:00,43.6,38.0,30.10,SSW,209,0.0,0.0,80,0.00,,,0.00,weatherlink.com 1.10,2013-02-24 00:51:00,
2013-02-23 20:06:00,42.8,37.0,30.09,NNW,334,0.0,1.0,79,0.00,,,0.00,weatherlink.com 1.10,2013-02-24 01:06:00,
2013-02-23 20:21:00,41.8,37.0,30.09,NNW,336,0.0,0.0,83,0.00,,,0.00,weatherlink.com 1.10,2013-02-24 01:21:00,
2013-02-23 20:36:00,42.0,37.0,30.09,NE,49,0.0,2.0,83,0.00,,,0.00,weatherlink.com 1.10,2013-02-24 01:36:00,
2013-02-23 20:51:00,42.4,37.0,30.10,NE,45,0.0,4.0,81,0.00,,,0.00,weatherlink.com 1.10,2013-02-24 01:51:00,
2013-02-23 21:06:00,41.9,37.0,30.09,NE,45,0.0,0.0,82,0.00,,,0.00,weatherlink.com 1.10,2013-02-24 02:06:00,
2013-02-23 21:21:00,41.6,36.0,30.09,NE,45,0.0,0.0,81,0.00,,,0.00,weatherlink.com 1.10,2013-02-24 02:21:00,
2013-02-23 21:36:00,40.1,36.0,30.09,NE,45,0.0,0.0,85,0.00,,,0.00,weatherlink.com 1.10,2013-02-24 02:36:00,
2013-02-23 21:51:00,39.5,36.0,30.09,NE,45,0.0,0.0,86,0.00,,,0.00,weatherlink.com 1.10,2013-02-24 02:51:00,
2013-02-23 22:06:00,39.7,37.0,30.09,NE,45,0.0,1.0,88,0.00,,,0.00,weatherlink.com 1.10,2013-02-24 03:06:00,
2013-02-23 22:21:00,40.4,37.0,30.09,NE,46,0.0,4.0,87,0.00,,,0.00,weatherlink.com 1.10,2013-02-24 03:21:00,
2013-02-23 22:36:00,40.4,37.0,30.08,East,87,1.0,4.0,88,0.00,,,0.00,weatherlink.com 1.10,2013-02-24 03:36:00,
2013-02-23 22:51:00,40.0,37.0,30.08,East,81,1.0,5.0,89,0.00,,,0.00,weatherlink.com 1.10,2013-02-24 03:51:00,
2013-02-23 23:06:00,39.5,36.0,30.08,NE,56,0.0,2.0,88,0.00,,,0.00,weatherlink.com 1.10,2013-02-24 04:06:00,
2013-02-23 23:21:00,38.6,36.0,30.08,NE,56,0.0,0.0,89,0.00,,,0.00,weatherlink.com 1.10,2013-02-24 04:21:00,
2013-02-23 23:36:00,38.2,36.0,30.09,NE,56,0.0,0.0,91,0.00,,,0.00,weatherlink.com 1.10,2013-02-24 04:36:00,
2013-02-23 23:51:00,38.3,36.0,30.09,NE,56,0.0,0.0,92,0.00,,,0.00,weatherlink.com 1.10,2013-02-24 04:51:00,